Log in

NYSE:CLRContinental Resources Institutional Ownership

$13.23
+1.00 (+8.18 %)
(As of 06/1/2020 04:00 PM ET)
Add
Compare
Today's Range
$12.05
Now: $13.23
$13.30
50-Day Range
$9.84
MA: $13.18
$16.39
52-Week Range
$6.90
Now: $13.23
$43.57
Volume4.24 million shs
Average Volume5.96 million shs
Market Capitalization$4.83 billion
P/E Ratio12.25
Dividend Yield1.64%
Beta3.43

Institutional Ownership

Institutional Ownership Changes (13F Filings) for Continental Resources (NYSE:CLR)

Institutional Ownership Percentage: 21.11%

Institutional Buying and Selling by Quarter


Continental Resources (NYSE CLR) Institutional Buying and Selling

Reporting DateHedge FundShares HeldMarket Value% of PortfolioQuarterly Change in SharesOwnership in Company
5/28/2020Optimal Asset Management Inc.68,913$0.53M0.0%+29.8%0.019%
5/26/2020Morgan Stanley444,126$3.39M0.0%+34.6%0.122%
5/19/2020APG Asset Management N.V.40,200$0.31M0.0%+74.0%0.011%
5/18/2020Voloridge Investment Management LLC103,757$0.79M0.0%N/A0.028%
5/18/2020Waddell & Reed Financial Inc.96,514$0.74M0.0%-68.9%0.026%
5/18/2020Mercer Global Advisors Inc. ADV13,088$100K0.0%N/A0.004%
5/18/2020Advisor Group Holdings Inc.100,028$0.78M0.0%N/A0.027%
5/15/2020Caxton Associates LP163,488$1.25M0.2%N/A0.045%
5/15/2020AQR Capital Management LLC98,280$0.75M0.0%+568.6%0.027%
5/15/2020Squarepoint Ops LLC351,800$2.69M0.1%+457.1%0.096%
5/15/2020Full Sail Capital LLC44,613$0.67M0.1%+106.4%0.012%
5/15/2020Invesco Ltd.374,919$2.87M0.0%+12.0%0.103%
5/15/2020Tudor Investment Corp Et Al39,549$0.30M0.0%+10.9%0.011%
5/15/2020Morgan Stanley444,126$3.39M0.0%+34.6%0.122%
5/15/2020CIBC World Markets Inc.121,675$0.93M0.0%+3.7%0.033%
5/15/2020APG Asset Management N.V.40,200$0.31M0.0%+74.0%0.011%
5/15/2020Quantitative Investment Management LLC33,494$0.26M0.0%N/A0.009%
5/15/2020Two Sigma Advisers LP2,471,883$18.89M0.1%+98.6%0.677%
5/15/2020Thrivent Financial for Lutherans325,882$2.49M0.0%+868.8%0.089%
5/15/2020Rafferty Asset Management LLC12,831$98K0.0%-86.8%0.004%
5/14/2020Centenus Global Management LP125,000$0.96M0.6%N/A0.034%
5/14/2020Caisse DE Depot ET Placement DU Quebec88,086$0.67M0.0%+179.8%0.024%
5/14/2020Wells Fargo & Company MN258,810$1.98M0.0%+120.5%0.071%
5/14/2020Athanor Capital LP16,040$0.12M0.0%N/A0.004%
5/14/2020Geode Capital Management LLC920,354$7.02M0.0%+4.2%0.248%
5/14/2020Tortoise Capital Advisors L.L.C.19,700$0.15M0.0%-82.9%0.005%
5/14/2020Nomura Asset Management Co. Ltd.17,138$0.13M0.0%+6.4%0.005%
5/14/2020Legal & General Group Plc510,228$3.91M0.0%+7.8%0.137%
5/14/2020APG Asset Management N.V.16,100$0.64M0.0%-30.3%0.004%
5/14/2020Deutsche Bank AG192,130$1.47M0.0%-40.1%0.052%
5/14/2020Alliancebernstein L.P.43,588$0.33M0.0%-70.2%0.012%
5/14/2020MML Investors Services LLC49,123$0.38M0.0%+712.0%0.013%
5/14/2020Nuveen Asset Management LLC184,268$1.41M0.0%-68.4%0.050%
5/14/2020Korea Investment CORP247,300$1.89M0.0%+2,742.5%0.067%
5/14/2020Westpac Banking Corp32,605$0.25M0.0%+434.1%0.009%
5/13/2020CoreCommodity Management LLC86,079$0.66M0.8%-2.9%0.023%
5/13/2020Canada Pension Plan Investment Board217,553$1.66M0.0%-10.2%0.059%
5/13/2020Parametric Portfolio Associates LLC836,866$6.39M0.0%+334.8%0.225%
5/13/2020Treasurer of the State of North Carolina35,363$0.27M0.0%+71.1%0.010%
5/13/2020BNP Paribas Arbitrage SA101,360$0.77M0.0%-23.8%0.027%
5/13/2020Horizon Kinetics Asset Management LLC18,390$0.14M0.0%+93.2%0.005%
5/13/2020Federated Hermes Inc.157,456$1.20M0.0%+1,978.6%0.042%
5/13/2020Toronto Dominion Bank12,526$96K0.0%-23.6%0.003%
5/13/2020DRW Securities LLC35,820$0.27M0.0%N/A0.010%
5/13/2020Mitsubishi UFJ Trust & Banking Corp104,071$0.80M0.0%+1.9%0.028%
5/13/2020US Bancorp DE46,970$0.36M0.0%+59.2%0.013%
5/12/2020Eqis Capital Management Inc.44,394$1.19M0.1%+2.7%0.012%
5/12/2020Bridges Investment Management Inc.232,414$1.78M0.1%-11.1%0.063%
5/12/2020Victory Capital Management Inc.56,207$0.43M0.0%-68.4%0.015%
5/12/2020FCG Advisors LLC36,000$0.28M0.1%N/A0.010%
5/12/2020GSA Capital Partners LLP31,256$0.24M0.1%N/A0.008%
5/12/2020JPMorgan Chase & Co.648,284$4.95M0.0%+3,087.7%0.175%
5/11/2020Ensign Peak Advisors Inc241,400$1.84M0.0%+2,017.0%0.065%
5/11/2020South Dakota Investment Council614,203$4.69M0.1%+64.5%0.165%
5/11/2020State Street Corp5,125,437$39.16M0.0%+21.6%1.380%
5/11/2020WINTON GROUP Ltd316,647$2.42M0.1%+786.4%0.085%
5/11/2020Fjarde AP Fonden Fourth Swedish National Pension Fund62,822$0.48M0.0%+47.0%0.017%
5/11/2020Blair William & Co. IL62,570$0.48M0.0%-39.8%0.017%
5/11/2020Mitsubishi UFJ Kokusai Asset Management Co. Ltd.16,379$0.13M0.0%+27.3%0.004%
5/8/2020Hancock Whitney Corp44,905$0.34M0.0%N/A0.012%
5/8/2020Alberta Investment Management Corp29,600$0.23M0.0%N/A0.008%
5/8/2020PNC Financial Services Group Inc.4,909$38K0.0%+80.0%0.001%
5/8/2020Swiss National Bank357,056$2.73M0.0%+19.7%0.096%
5/8/2020Cambridge Investment Research Advisors Inc.28,624$0.22M0.0%N/A0.008%
5/8/2020Oppenheimer Asset Management Inc.5,341$41K0.0%-52.8%0.001%
5/7/2020Beddow Capital Management Inc.30,540$0.23M0.2%-66.9%0.008%
5/7/2020Tobam36,785$0.28M0.0%N/A0.010%
5/6/2020Zurcher Kantonalbank Zurich Cantonalbank51,659$0.40M0.0%-4.5%0.014%
5/6/2020First Trust Advisors LP684,715$5.23M0.0%-11.3%0.184%
5/6/2020Russell Investments Group Ltd.164,529$1.26M0.0%+962.3%0.044%
5/6/2020Bank of New York Mellon Corp703,401$5.37M0.0%+11.9%0.189%
5/6/2020Rhumbline Advisers79,177$0.61M0.0%+9.0%0.021%
5/6/2020New York State Common Retirement Fund165,800$1.27M0.0%-41.5%0.045%
5/6/2020Wetherby Asset Management Inc.12,428$95K0.0%N/A0.003%
5/6/2020Keebeck Alpha LP16,013$0.12M0.1%N/A0.004%
5/6/2020Pearl River Capital LLC10,340$79K0.2%-37.1%0.003%
5/5/2020Teacher Retirement System of Texas114,900$0.88M0.0%-46.8%0.031%
5/5/2020Arizona State Retirement System21,369$0.16M0.0%N/A0.006%
5/5/2020Miller Howard Investments Inc. NY57,255$0.44M0.0%-19.1%0.015%
5/5/2020Caymus Capital Partners L.P.670,243$5.12M9.3%N/A0.180%
5/5/2020Creative Planning26,888$0.21M0.0%+124.8%0.007%
5/5/2020Aperio Group LLC421,774$3.22M0.0%+362.9%0.114%
5/5/2020Pillar Pacific Capital Management LLC88,020$0.67M0.1%+8.8%0.024%
5/4/2020KBC Group NV6,869$52K0.0%-39.9%0.002%
5/4/2020Victory Capital Management Inc.56,207$0.43M0.0%-68.4%0.015%
5/2/2020SG Americas Securities LLC21,949$0.17M0.0%+74.0%0.006%
5/1/2020BlackRock Inc.6,776,869$51.78M0.0%+30.9%1.825%
5/1/2020UBS Group AG250,420$1.91M0.0%+20.9%0.067%
4/30/2020Avantax Advisory Services Inc.57,358$0.44M0.0%+54.5%0.015%
4/30/2020CIBC Asset Management Inc14,159$0.11M0.0%-17.6%0.004%
4/30/2020Pictet & Cie Europe SA17,724$0.14M0.0%N/A0.005%
4/30/2020Bank Pictet & Cie Asia Ltd.52,816$0.40M0.2%N/A0.014%
4/30/2020Banque Pictet & Cie SA311,779$2.38M0.0%N/A0.084%
4/29/2020Dupont Capital Management Corp49,465$0.38M0.0%-17.4%0.013%
4/29/2020Zweig DiMenna Associates LLC47,196$0.36M0.0%N/A0.013%
4/28/2020ARP Americas LP17,555$0.13M0.0%N/A0.005%
4/27/2020Whittier Trust Co.10,986$84K0.0%-23.7%0.003%
4/27/2020Whittier Trust Co. of Nevada Inc.7,771$60K0.0%-9.9%0.002%
4/27/2020BBVA USA Bancshares Inc.23,933$0.18M0.0%+54.4%0.006%
4/27/2020Sumitomo Mitsui Trust Holdings Inc.367,431$2.81M0.0%-1.3%0.099%
(Data available from 1/1/2016 forward)
This page was last updated on 6/2/2020 by MarketBeat.com Staff

Enter your email address below to receive a concise daily summary of analysts' upgrades, downgrades and new coverage with MarketBeat.com's FREE daily email newsletter.